Time;durP1;ratioP1;P1;durP2;ratioP2;P2;SDS_P1;SDS_P2;PMS_P1;PMS_P2;Temp;Humidity;BMP_temperature;BMP_pressure;BME280_temperature;BME280_humidity;BME280_pressure;Samples;Min_cycle;Max_cycle;Signal;HPM_P1;HPM_P2
2022/10/13 00:01:22;;;;;;;0.77;0.50;;;;;;;20.28;39.90;100967.88;4973704;28;20518;-87
2022/10/13 00:03:48;;;;;;;0.75;0.40;;;;;;;20.29;39.89;100977.69;4946574;28;20471;-87
2022/10/13 00:06:17;;;;;;;0.30;0.30;;;;;;;20.29;39.85;100980.41;4956362;28;20077;-87
2022/10/13 00:08:43;;;;;;;0.70;0.40;;;;;;;20.29;39.76;100983.13;4964263;28;20031;-87
2022/10/13 00:11:15;;;;;;;0.28;0.28;;;;;;;20.29;39.85;100972.25;4973385;28;20574;-87
2022/10/13 00:13:41;;;;;;;1.58;0.40;;;;;;;20.27;39.77;100985.25;4973490;28;20202;-87
2022/10/13 00:16:07;;;;;;;0.75;0.40;;;;;;;20.28;39.91;100984.16;4958139;28;20357;-87
2022/10/13 00:18:33;;;;;;;1.10;0.40;;;;;;;20.26;39.86;100989.00;4973451;28;20042;-87
2022/10/13 00:20:58;;;;;;;0.30;0.30;;;;;;;20.26;39.63;100979.00;4972991;28;20392;-86
2022/10/13 00:23:24;;;;;;;1.65;0.43;;;;;;;20.24;39.70;100977.56;4973706;28;20440;-87
2022/10/13 00:25:50;;;;;;;0.65;0.40;;;;;;;20.25;39.95;100977.34;4939916;28;20550;-86
2022/10/13 00:28:18;;;;;;;0.43;0.43;;;;;;;20.18;39.71;100970.38;4971358;28;20031;-87
2022/10/13 00:30:43;;;;;;;0.35;0.30;;;;;;;20.25;39.62;100977.34;4955914;28;20039;-87
2022/10/13 00:33:09;;;;;;;0.73;0.25;;;;;;;20.25;39.51;100974.63;4972403;28;20042;-86
2022/10/13 00:35:40;;;;;;;2.33;0.40;;;;;;;20.24;39.66;100974.84;4972973;28;20388;-87
2022/10/13 00:38:06;;;;;;;0.40;0.40;;;;;;;20.22;39.44;100982.41;4972319;28;20427;-87
2022/10/13 00:40:31;;;;;;;0.47;0.40;;;;;;;20.21;39.49;100986.19;4972654;28;20030;-87
2022/10/13 00:42:57;;;;;;;2.55;0.60;;;;;;;20.37;39.37;100974.63;4973188;28;20031;-87
2022/10/13 00:45:28;;;;;;;0.40;0.40;;;;;;;20.56;39.06;100982.63;4972325;28;20439;-87
2022/10/13 00:47:57;;;;;;;0.85;0.32;;;;;;;20.79;38.54;100976.31;4955860;28;20056;-86
2022/10/13 00:50:26;;;;;;;0.25;0.25;;;;;;;20.92;38.21;100975.19;4972270;28;20030;-87
2022/10/13 00:52:53;;;;;;;0.95;0.30;;;;;;;20.95;38.13;100969.28;4972782;28;20033;-87
2022/10/13 00:55:20;;;;;;;1.08;0.38;;;;;;;20.99;38.02;100986.75;4939478;28;20077;-87
2022/10/13 00:57:45;;;;;;;1.15;0.32;;;;;;;20.93;38.07;100977.66;4940986;28;20023;-87
2022/10/13 01:00:12;;;;;;;0.85;0.40;;;;;;;20.87;37.85;100972.38;4955282;28;20026;-86
2022/10/13 01:02:37;;;;;;;0.38;0.30;;;;;;;20.81;38.00;100985.84;4954819;28;20082;-87
2022/10/13 01:05:04;;;;;;;0.55;0.43;;;;;;;20.71;38.01;100977.50;4955007;28;20109;-87
2022/10/13 01:07:30;;;;;;;0.98;0.52;;;;;;;20.71;38.03;100991.06;4922495;28;20034;-87
2022/10/13 01:09:56;;;;;;;0.50;0.32;;;;;;;20.66;37.97;100987.44;4959602;28;20023;-87
2022/10/13 01:12:49;;;;;;;0.65;0.40;;;;;;;20.59;37.95;100976.69;4972412;28;20396;-87
2022/10/13 01:15:28;;;;;;;0.70;0.35;;;;;;;20.57;38.26;100984.25;4958545;28;20041;-87
2022/10/13 01:18:27;;;;;;;0.65;0.30;;;;;;;20.53;38.28;100977.66;4955123;28;20141;-87
2022/10/13 01:21:02;;;;;;;0.20;0.20;;;;;;;20.49;38.30;100976.47;4971956;28;20059;-87
2022/10/13 01:23:52;;;;;;;0.30;0.30;;;;;;;20.48;38.53;100980.25;4972502;28;20503;-87
2022/10/13 01:26:18;;;;;;;0.88;0.38;;;;;;;20.46;38.71;100983.22;4971489;28;20034;-87
2022/10/13 01:29:25;;;;;;;0.70;0.30;;;;;;;20.41;38.71;100975.78;4972127;28;20373;-87
2022/10/13 01:32:17;;;;;;;1.38;0.40;;;;;;;20.41;38.89;100978.50;4969662;28;20042;-87
2022/10/13 01:35:11;;;;;;;0.38;0.38;;;;;;;20.38;38.94;100981.69;4943341;28;20102;-86
2022/10/13 01:37:43;;;;;;;0.40;0.40;;;;;;;20.36;38.92;100977.56;4928600;28;20085;-87
2022/10/13 01:40:12;;;;;;;0.65;0.30;;;;;;;20.37;39.01;100977.31;4942537;28;20031;-87
2022/10/13 01:42:49;;;;;;;0.38;0.32;;;;;;;20.36;38.87;100978.38;4971837;28;20058;-87
2022/10/13 01:45:16;;;;;;;0.98;0.40;;;;;;;20.36;38.85;100983.00;4971173;28;20416;-87
2022/10/13 01:47:42;;;;;;;0.88;0.40;;;;;;;20.34;38.88;100983.22;4954476;28;20027;-87
2022/10/13 01:50:07;;;;;;;1.05;0.40;;;;;;;20.32;38.97;100982.66;4971366;28;20026;-87
2022/10/13 01:52:34;;;;;;;0.50;0.30;;;;;;;20.31;38.94;100991.03;4937377;28;20118;-86
2022/10/13 01:55:08;;;;;;;0.40;0.30;;;;;;;20.30;39.00;100986.66;4938211;28;20027;-87
2022/10/13 01:57:38;;;;;;;0.30;0.30;;;;;;;20.26;38.92;100989.00;4954436;28;20539;-86
2022/10/13 02:00:12;;;;;;;0.30;0.30;;;;;;;20.29;38.77;100985.00;4971247;28;20491;-86
2022/10/13 02:02:40;;;;;;;1.17;0.40;;;;;;;20.47;38.49;100984.03;4956037;28;20023;-86
2022/10/13 02:05:13;;;;;;;0.35;0.35;;;;;;;20.65;38.20;100981.19;4971768;28;20109;-86
2022/10/13 02:07:42;;;;;;;0.50;0.40;;;;;;;20.90;37.70;100975.44;4953658;28;20855;-86
2022/10/13 02:10:15;;;;;;;0.63;0.35;;;;;;;21.09;37.41;100977.94;4971136;28;20102;-86
2022/10/13 02:12:58;;;;;;;0.45;0.30;;;;;;;21.19;36.99;100976.25;4971686;28;20054;-86
2022/10/13 02:15:34;;;;;;;0.30;0.30;;;;;;;21.18;37.14;100969.16;4970933;28;20031;-87
2022/10/13 02:17:59;;;;;;;1.05;0.30;;;;;;;21.06;37.07;100968.41;4954446;28;20108;-87
2022/10/13 02:20:25;;;;;;;0.35;0.35;;;;;;;21.03;37.23;100971.59;4956621;28;20109;-87
2022/10/13 02:22:54;;;;;;;0.40;0.40;;;;;;;20.96;37.19;100970.94;4971421;28;20105;-86
2022/10/13 02:25:20;;;;;;;0.65;0.43;;;;;;;20.88;37.25;100974.03;4953806;28;20121;-87
2022/10/13 02:27:46;;;;;;;0.20;0.20;;;;;;;20.78;37.05;100967.34;4953300;28;20114;-87
2022/10/13 02:30:23;;;;;;;0.38;0.38;;;;;;;20.76;37.65;100966.72;4971011;28;20025;-87
2022/10/13 02:32:48;;;;;;;0.32;0.30;;;;;;;20.71;37.40;100963.09;4954944;28;20023;-87
2022/10/13 02:35:14;;;;;;;0.70;0.43;;;;;;;20.64;37.37;100963.22;4970881;28;20035;-87
2022/10/13 02:37:40;;;;;;;1.85;0.40;;;;;;;20.62;37.50;100960.75;4953528;28;20050;-87
2022/10/13 02:40:06;;;;;;;0.40;0.40;;;;;;;20.58;37.39;100969.63;4955240;28;20169;-86
2022/10/13 02:42:31;;;;;;;0.30;0.30;;;;;;;20.56;37.55;100966.31;4953458;28;20085;-87
2022/10/13 02:44:57;;;;;;;0.68;0.60;;;;;;;20.49;37.92;100965.59;4970544;28;20070;-87
2022/10/13 02:47:23;;;;;;;0.55;0.50;;;;;;;20.48;37.65;100980.25;4953440;28;20030;-87
2022/10/13 02:49:48;;;;;;;0.38;0.30;;;;;;;20.33;37.89;100951.69;4968144;28;20535;-87
2022/10/13 02:52:14;;;;;;;0.45;0.45;;;;;;;20.47;38.10;100970.44;4970591;28;20035;-87
2022/10/13 02:54:39;;;;;;;1.38;0.40;;;;;;;20.44;38.28;100964.44;4971090;28;20029;-87
2022/10/13 02:57:05;;;;;;;0.45;0.30;;;;;;;20.33;38.22;100957.13;4969981;28;20034;-87
2022/10/13 02:59:31;;;;;;;1.40;0.40;;;;;;;20.37;38.35;100960.19;4953689;28;20066;-87
2022/10/13 03:01:56;;;;;;;0.40;0.40;;;;;;;20.38;38.13;100970.81;4937508;28;20023;-86
2022/10/13 03:04:22;;;;;;;0.73;0.30;;;;;;;20.34;38.09;100963.41;4970329;28;20097;-86
2022/10/13 03:06:47;;;;;;;0.28;0.28;;;;;;;20.33;38.13;100970.69;4953580;28;20477;-86
2022/10/13 03:09:13;;;;;;;0.30;0.30;;;;;;;20.51;38.05;100969.75;4970045;28;20392;-86
2022/10/13 03:11:39;;;;;;;0.63;0.45;;;;;;;20.75;37.53;100967.00;4970413;28;20118;-86
2022/10/13 03:14:05;;;;;;;0.55;0.32;;;;;;;21.03;36.79;100976.22;4970204;28;20035;-87
2022/10/13 03:16:30;;;;;;;0.30;0.30;;;;;;;21.24;36.55;100977.41;4970407;28;20031;-86
2022/10/13 03:18:56;;;;;;;0.30;0.30;;;;;;;21.30;36.25;100958.25;4970487;28;20510;-86
2022/10/13 03:21:21;;;;;;;1.15;0.40;;;;;;;21.35;36.21;100971.94;4953479;28;20042;-86
2022/10/13 03:23:47;;;;;;;0.88;0.50;;;;;;;21.32;36.36;100968.88;4953190;28;20037;-87
2022/10/13 03:26:14;;;;;;;0.35;0.32;;;;;;;21.23;36.45;100967.59;4952753;28;20022;-86
2022/10/13 03:28:40;;;;;;;0.60;0.50;;;;;;;21.14;36.45;100961.75;4970500;28;20030;-86
2022/10/13 03:31:07;;;;;;;0.60;0.50;;;;;;;21.07;36.65;100966.50;4974126;28;20022;-86
2022/10/13 03:33:33;;;;;;;0.20;0.20;;;;;;;20.97;36.37;100964.41;4958151;28;20031;-86
2022/10/13 03:36:03;;;;;;;1.77;0.50;;;;;;;20.87;36.40;100956.06;4974315;28;20118;-87
2022/10/13 03:38:29;;;;;;;0.30;0.30;;;;;;;20.84;36.59;100962.00;4957552;28;21041;-86
2022/10/13 03:40:55;;;;;;;0.30;0.30;;;;;;;20.77;36.47;100962.16;4973956;28;20505;-86
2022/10/13 03:43:23;;;;;;;0.40;0.40;;;;;;;20.70;36.38;100967.72;4973514;28;20039;-86
2022/10/13 03:45:59;;;;;;;0.65;0.30;;;;;;;20.68;36.74;100964.44;4962119;28;20118;-86
2022/10/13 03:48:25;;;;;;;0.30;0.30;;;;;;;20.61;36.73;100964.53;4974190;28;20539;-86
2022/10/13 03:50:50;;;;;;;0.50;0.40;;;;;;;20.50;36.90;100948.25;4973341;28;20039;-86
2022/10/13 03:53:16;;;;;;;1.08;0.43;;;;;;;20.50;36.85;100945.53;4956622;28;20022;-86
2022/10/13 03:55:41;;;;;;;0.55;0.40;;;;;;;20.51;37.13;100966.22;4956059;28;20042;-86
2022/10/13 03:58:07;;;;;;;1.20;0.50;;;;;;;20.50;37.12;100965.38;4970443;28;20399;-87
2022/10/13 04:00:36;;;;;;;0.73;0.30;;;;;;;20.46;37.17;100956.06;4973900;28;20035;-86
2022/10/13 04:03:01;;;;;;;0.65;0.30;;;;;;;20.46;37.49;100953.34;4957493;28;20035;-86
2022/10/13 04:05:27;;;;;;;0.98;0.47;;;;;;;20.40;37.66;100960.56;4957186;28;20030;-86
2022/10/13 04:07:52;;;;;;;0.88;0.40;;;;;;;20.42;37.45;100946.72;4970690;28;20383;-87
2022/10/13 04:10:18;;;;;;;0.88;0.43;;;;;;;20.68;36.98;100948.13;4958673;28;20110;-87
2022/10/13 04:12:44;;;;;;;0.45;0.38;;;;;;;20.87;36.64;100942.50;4972104;28;20434;-86
2022/10/13 04:15:09;;;;;;;0.40;0.40;;;;;;;21.17;36.10;100948.50;4972771;28;20546;-86
2022/10/13 04:17:35;;;;;;;0.40;0.40;;;;;;;21.37;35.68;100949.94;4973256;28;20058;-86
2022/10/13 04:20:00;;;;;;;0.40;0.40;;;;;;;21.47;35.64;100944.69;4956437;28;20031;-87
2022/10/13 04:22:26;;;;;;;0.38;0.38;;;;;;;21.48;35.55;100940.88;4956633;28;20113;-86
2022/10/13 04:24:52;;;;;;;0.40;0.40;;;;;;;21.43;35.60;100948.94;4957116;28;20045;-86
2022/10/13 04:27:18;;;;;;;0.50;0.50;;;;;;;21.35;35.65;100949.31;4959992;28;20153;-87
2022/10/13 04:29:44;;;;;;;0.73;0.40;;;;;;;21.23;35.96;100951.28;4959287;28;20022;-87
2022/10/13 04:32:10;;;;;;;0.68;0.50;;;;;;;21.09;35.96;100948.88;4942245;28;20113;-87
2022/10/13 04:34:35;;;;;;;1.92;0.30;;;;;;;21.02;35.75;100948.22;4955418;28;20472;-87
2022/10/13 04:37:01;;;;;;;0.85;0.40;;;;;;;20.96;36.03;100960.06;4955555;28;20026;-87
2022/10/13 04:39:27;;;;;;;0.73;0.40;;;;;;;20.89;35.80;100953.97;4956675;28;20484;-86
2022/10/13 04:41:53;;;;;;;0.40;0.40;;;;;;;20.81;35.78;100949.72;4970816;28;20037;-87
2022/10/13 04:44:18;;;;;;;0.70;0.30;;;;;;;20.75;35.92;100948.00;4971980;28;20050;-86
2022/10/13 04:46:44;;;;;;;2.20;0.50;;;;;;;20.74;35.96;100951.75;4956032;28;20023;-87
2022/10/13 04:49:09;;;;;;;1.00;0.55;;;;;;;20.65;36.21;100942.34;4972759;28;20031;-86
2022/10/13 04:51:35;;;;;;;0.38;0.30;;;;;;;20.56;36.08;100936.44;4953487;28;20033;-87
2022/10/13 04:54:01;;;;;;;0.70;0.40;;;;;;;20.58;36.36;100943.28;4953775;28;20023;-86
2022/10/13 04:56:27;;;;;;;1.70;0.40;;;;;;;20.57;36.36;100935.38;4970361;28;20038;-87
2022/10/13 04:58:52;;;;;;;0.77;0.43;;;;;;;20.52;36.43;100940.69;4971026;28;20570;-87
2022/10/13 05:01:20;;;;;;;0.40;0.40;;;;;;;20.47;36.46;100935.16;4971150;28;20117;-87
2022/10/13 05:03:46;;;;;;;0.82;0.30;;;;;;;20.44;36.45;100944.63;4955544;28;20019;-86
2022/10/13 05:06:16;;;;;;;0.40;0.40;;;;;;;20.43;36.73;100934.81;4971046;28;20042;-86
2022/10/13 05:08:42;;;;;;;1.08;0.50;;;;;;;20.52;36.60;100922.50;4972049;28;20046;-86
2022/10/13 05:11:07;;;;;;;1.33;0.35;;;;;;;20.86;36.30;100940.84;4972993;28;20468;-86
2022/10/13 05:13:33;;;;;;;0.90;0.45;;;;;;;20.92;35.90;100912.69;4971735;28;20027;-86
2022/10/13 05:15:58;;;;;;;0.77;0.40;;;;;;;21.36;35.35;100937.41;4972101;28;20035;-86
2022/10/13 05:18:24;;;;;;;2.05;0.40;;;;;;;21.39;35.16;100926.03;4972175;28;20084;-86
2022/10/13 05:20:50;;;;;;;0.40;0.40;;;;;;;21.38;34.91;100913.50;4971671;28;20396;-86
2022/10/13 05:23:15;;;;;;;1.50;0.38;;;;;;;21.51;35.11;100918.66;4972199;28;20033;-86
2022/10/13 05:25:41;;;;;;;0.80;0.47;;;;;;;21.28;35.25;100902.47;4954519;28;20034;-86
2022/10/13 05:28:07;;;;;;;1.10;0.40;;;;;;;21.33;35.31;100925.09;4956544;28;20038;-86
2022/10/13 05:30:33;;;;;;;1.05;0.52;;;;;;;21.17;35.59;100913.16;4972019;28;20535;-86
2022/10/13 05:32:58;;;;;;;0.60;0.40;;;;;;;20.90;35.67;100874.09;4955546;28;20035;-86
2022/10/13 05:35:25;;;;;;;0.60;0.50;;;;;;;21.07;35.18;100923.84;4971840;28;20026;-86
2022/10/13 05:37:50;;;;;;;2.88;0.70;;;;;;;20.98;35.35;100919.88;4971837;28;20365;-86
2022/10/13 05:40:16;;;;;;;0.40;0.40;;;;;;;20.89;35.50;100911.31;4971951;28;20022;-86
2022/10/13 05:42:42;;;;;;;0.40;0.40;;;;;;;20.59;35.53;100887.91;4954663;28;20114;-86
2022/10/13 05:45:09;;;;;;;0.75;0.40;;;;;;;20.80;35.69;100919.03;4971271;28;20492;-86
2022/10/13 05:47:34;;;;;;;0.85;0.50;;;;;;;20.72;35.78;100922.13;4940730;28;20031;-86
2022/10/13 05:50:00;;;;;;;0.40;0.40;;;;;;;20.69;35.81;100917.16;4971480;28;20111;-86
2022/10/13 05:52:25;;;;;;;0.77;0.38;;;;;;;20.65;35.97;100910.59;4969206;28;20027;-86
2022/10/13 05:54:53;;;;;;;0.60;0.40;;;;;;;20.62;35.97;100927.34;4938039;28;20030;-86
2022/10/13 05:57:20;;;;;;;0.90;0.40;;;;;;;20.59;36.29;100923.22;4970877;28;20382;-87
2022/10/13 05:59:52;;;;;;;0.30;0.30;;;;;;;20.53;36.25;100923.34;4971765;28;20030;-86
2022/10/13 06:02:18;;;;;;;0.77;0.40;;;;;;;20.44;36.33;100920.19;4970779;28;20030;-86
2022/10/13 06:04:45;;;;;;;0.93;0.40;;;;;;;20.53;36.45;100929.59;4954588;28;20082;-86
2022/10/13 06:07:11;;;;;;;1.27;0.43;;;;;;;20.67;36.46;100916.59;4971550;28;20042;-87
2022/10/13 06:09:40;;;;;;;0.88;0.40;;;;;;;20.92;36.01;100926.28;4955080;28;20023;-86
2022/10/13 06:12:06;;;;;;;0.70;0.50;;;;;;;21.18;35.65;100925.69;4954198;28;20037;-86
2022/10/13 06:14:32;;;;;;;0.68;0.47;;;;;;;21.18;35.24;100895.78;4971169;28;20034;-87
2022/10/13 06:16:57;;;;;;;0.55;0.45;;;;;;;21.49;35.10;100920.78;4955355;28;20041;-86
2022/10/13 06:19:23;;;;;;;1.35;0.40;;;;;;;21.50;35.07;100905.28;4953672;28;20022;-86
2022/10/13 06:21:49;;;;;;;1.85;0.38;;;;;;;21.48;35.20;100913.69;4970899;28;20117;-86
2022/10/13 06:24:14;;;;;;;0.70;0.55;;;;;;;21.37;35.21;100917.31;4971103;28;20122;-86
2022/10/13 06:26:40;;;;;;;1.05;0.50;;;;;;;21.26;35.24;100918.19;4970449;28;20057;-86
2022/10/13 06:29:06;;;;;;;0.50;0.40;;;;;;;21.20;35.54;100918.09;4936653;28;20023;-86
2022/10/13 06:31:31;;;;;;;1.00;0.30;;;;;;;20.92;35.51;100888.25;4953343;28;20062;-86
2022/10/13 06:33:58;;;;;;;0.55;0.50;;;;;;;20.96;35.53;100905.72;4970931;28;20102;-86
2022/10/13 06:36:23;;;;;;;0.60;0.40;;;;;;;20.94;35.33;100918.75;4954202;28;20030;-86
2022/10/13 06:38:49;;;;;;;0.63;0.38;;;;;;;20.73;35.38;100902.06;4970511;28;20030;-86
2022/10/13 06:41:15;;;;;;;1.98;0.50;;;;;;;20.82;35.59;100922.31;4970892;28;20034;-86
2022/10/13 06:43:40;;;;;;;0.55;0.40;;;;;;;20.78;35.63;100942.91;4949907;29;20054;-86
2022/10/13 06:46:06;;;;;;;0.40;0.40;;;;;;;20.75;35.76;100937.13;4948037;29;20038;-86
2022/10/13 06:48:32;;;;;;;0.50;0.40;;;;;;;20.71;36.02;100931.31;4951363;28;20054;-86
2022/10/13 06:51:02;;;;;;;0.45;0.40;;;;;;;20.69;35.82;100930.75;4949814;29;20078;-86
2022/10/13 06:53:29;;;;;;;0.60;0.45;;;;;;;20.65;35.93;100935.03;4953367;28;20043;-86
2022/10/13 06:55:56;;;;;;;0.40;0.40;;;;;;;20.55;36.07;100932.06;4949664;29;20054;-86
2022/10/13 06:58:22;;;;;;;0.55;0.50;;;;;;;20.58;36.02;100934.31;4951237;28;20480;-86
2022/10/13 07:00:47;;;;;;;0.52;0.35;;;;;;;20.53;36.27;100931.50;4951443;28;20027;-86
2022/10/13 07:03:13;;;;;;;0.75;0.43;;;;;;;20.52;36.25;100932.56;4949030;28;20055;-86
2022/10/13 07:05:38;;;;;;;0.40;0.40;;;;;;;20.51;36.31;100937.16;4951398;28;20063;-86
2022/10/13 07:08:04;;;;;;;0.38;0.38;;;;;;;20.45;36.79;100938.97;4950734;28;20059;-86
2022/10/13 07:10:30;;;;;;;0.30;0.30;;;;;;;20.49;36.76;100935.75;4951228;28;20027;-87
2022/10/13 07:12:56;;;;;;;0.40;0.40;;;;;;;20.62;36.55;100932.78;4951235;28;20035;-86
2022/10/13 07:15:23;;;;;;;1.20;0.65;;;;;;;20.87;36.46;100928.91;4949352;29;20093;-86
2022/10/13 07:17:52;;;;;;;0.30;0.30;;;;;;;21.09;36.03;100921.69;4936595;29;20027;-87
2022/10/13 07:20:19;;;;;;;0.40;0.40;;;;;;;21.27;35.63;100928.00;4950786;28;20081;-86
2022/10/13 07:22:44;;;;;;;0.57;0.40;;;;;;;21.37;35.58;100923.56;4965946;28;20557;-87
2022/10/13 07:25:10;;;;;;;1.00;0.63;;;;;;;21.37;35.71;100920.84;4951085;29;20027;-87
2022/10/13 07:27:37;;;;;;;0.32;0.32;;;;;;;21.32;35.73;100919.94;4949512;29;20043;-87
2022/10/13 07:30:04;;;;;;;0.68;0.65;;;;;;;21.25;35.85;100919.25;4951076;28;20027;-87
2022/10/13 07:32:33;;;;;;;1.15;0.40;;;;;;;21.13;36.04;100922.88;4948399;29;20106;-87
2022/10/13 07:34:58;;;;;;;0.70;0.50;;;;;;;21.08;35.97;100924.69;4950863;28;20166;-87
2022/10/13 07:37:25;;;;;;;0.70;0.45;;;;;;;21.01;35.89;100927.56;4950899;28;20290;-87
2022/10/13 07:39:50;;;;;;;0.30;0.30;;;;;;;20.93;36.10;100911.66;4950799;28;20487;-87
2022/10/13 07:42:16;;;;;;;0.40;0.40;;;;;;;20.89;36.22;100922.19;4950574;28;20098;-87
2022/10/13 07:44:42;;;;;;;0.60;0.40;;;;;;;20.81;36.68;100917.94;4949091;29;20043;-87
2022/10/13 07:47:08;;;;;;;1.55;0.40;;;;;;;20.80;36.23;100919.03;4950736;28;20027;-87
2022/10/13 07:49:33;;;;;;;0.40;0.40;;;;;;;20.77;36.78;100921.41;4950891;29;20034;-87
2022/10/13 07:52:02;;;;;;;1.30;0.30;;;;;;;20.75;37.07;100921.66;4950564;28;20106;-87
2022/10/13 07:54:27;;;;;;;0.40;0.40;;;;;;;20.70;37.19;100924.25;4950762;28;20039;-87
2022/10/13 07:56:53;;;;;;;0.70;0.30;;;;;;;20.68;37.32;100926.41;4950634;28;20043;-87
2022/10/13 07:59:19;;;;;;;0.40;0.40;;;;;;;20.67;37.25;100916.59;4949568;29;20053;-87
2022/10/13 08:01:44;;;;;;;0.30;0.30;;;;;;;20.58;36.81;100905.25;4950964;29;20035;-88
2022/10/13 08:04:10;;;;;;;0.88;0.32;;;;;;;20.62;36.87;100913.78;4949077;29;20216;-88
2022/10/13 08:06:36;;;;;;;0.65;0.50;;;;;;;20.61;37.55;100915.66;4947949;29;20052;-88
2022/10/13 08:09:02;;;;;;;0.40;0.40;;;;;;;20.61;37.48;100920.22;4950648;28;20601;-88
2022/10/13 08:11:28;;;;;;;0.50;0.50;;;;;;;20.59;37.09;100917.78;4950662;28;20030;-88
2022/10/13 08:13:54;;;;;;;0.82;0.43;;;;;;;20.59;37.79;100916.94;4950744;29;20031;-88
2022/10/13 08:16:20;;;;;;;0.40;0.40;;;;;;;20.55;37.49;100913.88;4952660;28;20031;-88
2022/10/13 08:18:47;;;;;;;0.32;0.32;;;;;;;20.52;37.35;100905.41;4936859;29;20049;-88
2022/10/13 08:21:15;;;;;;;1.23;0.40;;;;;;;20.48;37.49;100899.63;4952441;29;20177;-88
2022/10/13 08:23:41;;;;;;;0.38;0.30;;;;;;;20.52;37.81;100906.22;4948202;29;20480;-88
2022/10/13 08:26:24;;;;;;;0.75;0.50;;;;;;;20.54;38.03;100905.97;4953698;28;20033;-88
2022/10/13 08:28:50;;;;;;;0.40;0.40;;;;;;;20.51;38.23;100915.44;4951377;29;20439;-88
2022/10/13 08:31:15;;;;;;;1.95;0.57;;;;;;;20.52;38.28;100913.53;4953785;29;20027;-88
2022/10/13 08:33:41;;;;;;;0.50;0.50;;;;;;;20.48;37.73;100909.66;4953298;28;20063;-88
2022/10/13 08:36:07;;;;;;;1.17;0.50;;;;;;;20.49;37.74;100908.59;4954044;28;20035;-88
2022/10/13 08:38:33;;;;;;;0.60;0.50;;;;;;;20.50;37.92;100912.97;4953474;28;20031;-88
2022/10/13 08:40:59;;;;;;;0.60;0.50;;;;;;;20.48;38.43;100904.25;4968709;28;20040;-87
2022/10/13 08:43:25;;;;;;;0.40;0.40;;;;;;;20.47;38.38;100905.28;4956748;28;20045;-87
2022/10/13 08:45:52;;;;;;;1.67;0.50;;;;;;;20.44;38.24;100896.56;4958219;28;20090;-87
2022/10/13 08:48:20;;;;;;;1.45;0.45;;;;;;;20.43;38.24;100894.91;4956162;28;20031;-87
2022/10/13 08:50:47;;;;;;;0.70;0.52;;;;;;;20.40;38.70;100900.84;4956167;28;20027;-87
2022/10/13 08:53:15;;;;;;;1.02;0.60;;;;;;;20.45;38.30;100900.94;4940452;28;20390;-87
2022/10/13 08:55:47;;;;;;;0.47;0.45;;;;;;;20.39;38.46;100891.03;4972644;28;20034;-88
2022/10/13 08:58:27;;;;;;;0.63;0.60;;;;;;;20.39;38.31;100891.03;4972087;28;20035;-87
2022/10/13 09:00:57;;;;;;;0.60;0.60;;;;;;;20.44;38.60;100896.56;4972708;28;20476;-87
2022/10/13 09:03:27;;;;;;;0.80;0.50;;;;;;;20.39;38.56;100890.22;4955311;28;20030;-87
2022/10/13 09:06:05;;;;;;;1.30;0.68;;;;;;;20.41;38.91;100894.34;4957292;28;20034;-87
2022/10/13 09:08:43;;;;;;;0.60;0.60;;;;;;;20.40;38.67;100895.41;4972137;28;20034;-87
2022/10/13 09:11:11;;;;;;;1.73;0.70;;;;;;;20.36;38.67;100891.50;4953599;28;20046;-87
2022/10/13 09:13:36;;;;;;;0.63;0.52;;;;;;;20.39;39.08;100890.22;4939235;28;20030;-87
2022/10/13 09:16:02;;;;;;;0.80;0.60;;;;;;;20.36;39.07;100894.22;4972000;28;20058;-87
2022/10/13 09:18:30;;;;;;;0.68;0.50;;;;;;;20.37;39.14;100890.47;4972524;28;20102;-87
2022/10/13 09:21:14;;;;;;;0.40;0.40;;;;;;;20.40;39.22;100886.44;4956246;28;20027;-87
2022/10/13 09:23:40;;;;;;;1.05;0.50;;;;;;;20.36;39.42;100886.09;4970661;28;20027;-87
2022/10/13 09:26:08;;;;;;;0.50;0.50;;;;;;;20.36;39.58;100888.81;4971381;28;20097;-87
2022/10/13 09:28:33;;;;;;;0.47;0.47;;;;;;;20.35;39.54;100892.59;4971792;28;20034;-87
2022/10/13 09:31:03;;;;;;;0.50;0.50;;;;;;;20.36;39.21;100885.28;4972652;28;20455;-87
2022/10/13 09:33:29;;;;;;;0.70;0.70;;;;;;;20.28;39.55;100867.47;4971475;28;20529;-87
2022/10/13 09:35:57;;;;;;;1.15;0.68;;;;;;;20.35;39.42;100884.47;4940679;28;20122;-87
2022/10/13 09:38:26;;;;;;;0.50;0.50;;;;;;;20.29;39.63;100871.84;4971669;28;20112;-87
2022/10/13 09:41:21;;;;;;;0.65;0.50;;;;;;;20.35;39.51;100884.47;4954877;28;20023;-87
2022/10/13 09:43:46;;;;;;;;;;;;;;;20.35;39.65;100886.31;4969934;28;20147;-87
2022/10/13 09:46:26;;;;;;;1.27;0.80;;;;;;;20.30;39.69;100884.34;4971396;28;20395;-87
2022/10/13 09:49:05;;;;;;;0.70;0.60;;;;;;;20.29;39.46;100885.41;4953561;28;20420;-87
2022/10/13 09:51:38;;;;;;;0.85;0.70;;;;;;;20.31;39.92;100888.69;4954234;28;20022;-87
2022/10/13 09:54:04;;;;;;;0.70;0.70;;;;;;;20.27;39.97;100884.81;4971527;28;20102;-87
2022/10/13 09:56:37;;;;;;;0.80;0.70;;;;;;;20.29;39.75;100888.13;4971387;28;20117;-87
2022/10/13 09:59:45;;;;;;;1.77;0.60;;;;;;;20.30;39.95;100887.06;4941160;28;20030;-87
2022/10/13 10:02:39;;;;;;;1.10;0.60;;;;;;;20.28;39.83;100891.88;4960618;28;20070;-87
2022/10/13 10:05:17;;;;;;;0.60;0.60;;;;;;;20.28;40.20;100889.16;4969193;28;20027;-86
2022/10/13 10:07:44;;;;;;;0.80;0.70;;;;;;;20.28;40.29;100889.16;4971479;28;20117;-86
2022/10/13 10:10:34;;;;;;;0.98;0.70;;;;;;;20.24;40.36;100882.59;4971024;28;20030;-87
2022/10/13 10:13:00;;;;;;;0.60;0.60;;;;;;;20.24;40.32;100885.28;4956028;28;20027;-87
2022/10/13 10:15:49;;;;;;;0.50;0.50;;;;;;;20.26;39.65;100891.31;4939229;28;20029;-87
2022/10/13 10:18:28;;;;;;;1.10;0.65;;;;;;;20.23;40.61;100881.78;4971259;28;20027;-87
2022/10/13 10:21:31;;;;;;;1.45;0.70;;;;;;;20.26;40.48;100885.88;4941426;28;20034;-86
2022/10/13 10:24:03;;;;;;;0.85;0.60;;;;;;;20.21;40.34;100883.91;4970217;28;20074;-87
2022/10/13 10:26:49;;;;;;;0.60;0.50;;;;;;;20.23;40.66;100881.78;4953609;28;20034;-87
2022/10/13 10:29:49;;;;;;;1.40;0.80;;;;;;;20.22;40.10;100892.84;4955676;28;20031;-87
2022/10/13 10:32:18;;;;;;;1.38;0.70;;;;;;;20.16;40.74;100869.38;4953274;28;20030;-87
2022/10/13 10:35:03;;;;;;;1.27;0.65;;;;;;;20.17;40.50;100882.72;4970928;28;20428;-87
2022/10/13 10:37:37;;;;;;;0.55;0.50;;;;;;;20.21;40.80;100883.91;4953567;28;20045;-87
2022/10/13 10:40:28;;;;;;;0.93;0.60;;;;;;;19.92;40.79;100836.91;4970444;28;20031;-87
2022/10/13 10:43:23;;;;;;;1.02;0.60;;;;;;;20.21;40.90;100885.78;4953676;28;20289;-87
2022/10/13 10:45:49;;;;;;;0.57;0.50;;;;;;;20.20;40.93;100884.13;4934312;29;20512;-87
2022/10/13 10:48:20;;;;;;;1.52;0.65;;;;;;;20.19;40.55;100883.28;4936264;29;20043;-87
2022/10/13 10:50:45;;;;;;;0.65;0.50;;;;;;;20.18;40.72;100888.97;4934998;29;20054;-87
2022/10/13 10:53:16;;;;;;;1.08;0.60;;;;;;;20.20;40.83;100882.25;4951213;29;20540;-87
2022/10/13 10:55:59;;;;;;;1.15;0.60;;;;;;;20.19;40.31;100886.00;4951302;29;20477;-87
2022/10/13 10:58:43;;;;;;;0.70;0.60;;;;;;;20.18;41.12;100873.53;4935557;29;20031;-87
2022/10/13 11:01:24;;;;;;;0.68;0.68;;;;;;;20.19;41.14;100874.34;4951220;29;20082;-87
2022/10/13 11:03:57;;;;;;;0.60;0.50;;;;;;;20.19;41.04;100871.63;4934339;29;20050;-87
2022/10/13 11:06:34;;;;;;;0.63;0.60;;;;;;;20.06;40.96;100854.56;4920750;29;20027;-87
2022/10/13 11:08:59;;;;;;;0.95;0.80;;;;;;;19.96;41.20;100834.53;4920498;29;20449;-87
2022/10/13 11:11:25;;;;;;;0.95;0.70;;;;;;;20.19;41.26;100872.44;4951191;29;20184;-87
2022/10/13 11:13:52;;;;;;;1.85;1.10;;;;;;;20.20;40.69;100876.81;4951031;29;20078;-87
2022/10/13 11:16:23;;;;;;;1.20;0.73;;;;;;;20.21;40.76;100874.91;4919885;29;20038;-87
2022/10/13 11:19:05;;;;;;;1.08;0.80;;;;;;;20.19;41.32;100868.91;4951545;29;20059;-87
2022/10/13 11:21:58;;;;;;;0.80;0.70;;;;;;;20.19;40.63;100869.72;4935776;29;20023;-87
2022/10/13 11:24:37;;;;;;;0.95;0.77;;;;;;;20.17;40.65;100869.16;4950795;29;20592;-87
2022/10/13 11:27:15;;;;;;;2.00;1.27;;;;;;;20.17;41.22;100865.63;4950899;29;20041;-87
2022/10/13 11:29:52;;;;;;;1.67;0.80;;;;;;;20.18;41.41;100868.09;4949885;29;20023;-87
2022/10/13 11:32:24;;;;;;;1.50;0.90;;;;;;;20.18;41.36;100867.25;4950607;29;20082;-87
2022/10/13 11:35:05;;;;;;;1.30;0.88;;;;;;;20.18;41.75;100869.97;4950713;28;20468;-87